createdAt,value
2018-10-03T00:00:24.470Z,63.66
2018-10-03T00:02:53.068Z,63.47
2018-10-03T00:05:21.643Z,63.24
2018-10-03T00:07:50.195Z,63.40
2018-10-03T00:10:18.821Z,62.69
2018-10-03T00:12:47.383Z,63.74
2018-10-03T00:15:15.968Z,63.44
2018-10-03T00:17:44.726Z,63.12
2018-10-03T00:20:13.314Z,63.12
2018-10-03T00:22:41.893Z,63.31
2018-10-03T00:25:10.395Z,62.98
2018-10-03T00:27:38.877Z,62.95
2018-10-03T00:30:07.360Z,62.62
2018-10-03T00:32:36.098Z,63.13
2018-10-03T00:35:04.595Z,62.81
2018-10-03T00:37:33.071Z,63.06
2018-10-03T00:40:02.007Z,62.66
2018-10-03T00:42:30.483Z,63.22
2018-10-03T00:45:13.017Z,62.91
2018-10-03T00:47:41.541Z,62.88
2018-10-03T00:50:10.272Z,62.58
2018-10-03T00:52:38.769Z,63.07
2018-10-03T00:55:07.568Z,62.22
2018-10-03T00:57:36.142Z,62.25
2018-10-03T01:00:04.763Z,62.94
2018-10-03T01:02:33.361Z,62.32
2018-10-03T01:05:01.906Z,62.91
2018-10-03T01:07:30.766Z,62.19
2018-10-03T01:09:59.363Z,62.32
2018-10-03T01:12:27.843Z,62.13
2018-10-03T01:14:56.326Z,62.55
2018-10-03T01:17:24.894Z,62.74
2018-10-03T01:19:53.483Z,62.21
2018-10-03T01:22:22.077Z,61.93
2018-10-03T01:24:50.637Z,62.22
2018-10-03T01:27:19.154Z,61.70
2018-10-03T01:29:47.688Z,62.34
2018-10-03T01:32:16.225Z,62.64
2018-10-03T01:34:44.842Z,61.99
2018-10-03T01:37:13.405Z,62.85
2018-10-03T01:39:41.971Z,63.03
2018-10-03T01:42:10.531Z,62.30
2018-10-03T01:44:39.151Z,62.63
2018-10-03T01:47:07.727Z,63.15
2018-10-03T01:49:36.228Z,62.87
2018-10-03T01:52:04.806Z,62.86
2018-10-03T01:54:33.528Z,63.32
2018-10-03T01:57:02.062Z,62.91
2018-10-03T01:59:30.701Z,62.75
2018-10-03T02:01:59.443Z,62.71
2018-10-03T02:04:28.038Z,62.89
2018-10-03T02:06:56.674Z,62.39
2018-10-03T02:09:25.223Z,62.55
2018-10-03T02:11:53.745Z,62.60
2018-10-03T02:14:22.342Z,62.48
2018-10-03T02:16:51.116Z,63.16
2018-10-03T02:19:19.666Z,62.60
2018-10-03T02:21:48.336Z,62.28
2018-10-03T02:24:16.836Z,62.38
2018-10-03T02:26:45.497Z,62.62
2018-10-03T02:29:14.035Z,62.23
2018-10-03T02:31:42.636Z,62.73
2018-10-03T02:34:11.241Z,62.54
2018-10-03T02:36:39.799Z,62.97
2018-10-03T02:39:09.502Z,62.04
2018-10-03T02:41:38.097Z,62.58
2018-10-03T02:44:06.713Z,63.18
2018-10-03T02:46:35.353Z,63.09
2018-10-03T02:49:04.069Z,62.83
2018-10-03T02:51:33.026Z,62.77
2018-10-03T02:54:01.525Z,62.94
2018-10-03T02:56:30.131Z,63.11
2018-10-03T02:58:58.735Z,63.00
2018-10-03T03:01:27.331Z,62.96
2018-10-03T03:03:55.831Z,63.34
2018-10-03T03:06:24.380Z,63.44
2018-10-03T03:08:52.933Z,63.36
2018-10-03T03:11:21.444Z,63.12
2018-10-03T03:13:50.046Z,63.62
2018-10-03T03:16:18.578Z,63.59
2018-10-03T03:18:47.504Z,63.39
2018-10-03T03:21:16.080Z,62.93
2018-10-03T03:23:44.570Z,63.50
2018-10-03T03:26:13.121Z,62.93
2018-10-03T03:28:41.672Z,63.03
2018-10-03T03:31:10.145Z,63.60
2018-10-03T03:33:38.698Z,63.73
2018-10-03T03:36:07.211Z,63.69
2018-10-03T03:38:35.843Z,63.19
2018-10-03T03:41:04.372Z,63.40
2018-10-03T03:43:33.007Z,63.57
2018-10-03T03:46:01.561Z,63.79
2018-10-03T03:48:30.207Z,64.08
2018-10-03T03:50:58.807Z,63.45
2018-10-03T03:53:27.427Z,63.79
2018-10-03T03:55:56.064Z,64.01
2018-10-03T03:58:24.581Z,63.25
2018-10-03T04:00:53.127Z,63.94
2018-10-03T04:03:21.692Z,64.03
2018-10-03T04:05:50.252Z,63.72
2018-10-03T04:08:18.853Z,63.60
2018-10-03T04:10:47.395Z,63.69
2018-10-03T04:13:15.910Z,63.57
2018-10-03T04:15:44.465Z,63.96
2018-10-03T04:18:12.975Z,64.03
2018-10-03T04:20:41.561Z,63.84
2018-10-03T04:23:10.157Z,64.08
2018-10-03T04:25:38.847Z,64.29
2018-10-03T04:28:07.422Z,64.38
2018-10-03T04:30:35.988Z,64.53
2018-10-03T04:33:04.538Z,65.07
2018-10-03T04:35:33.211Z,64.74
2018-10-03T04:38:01.661Z,64.86
2018-10-03T04:40:30.212Z,65.36
2018-10-03T04:42:58.773Z,65.15
2018-10-03T04:45:27.366Z,65.03
2018-10-03T04:47:55.962Z,65.45
2018-10-03T04:50:24.596Z,64.63
2018-10-03T04:52:53.219Z,64.86
2018-10-03T04:55:21.806Z,64.77
2018-10-03T04:57:50.413Z,64.42
2018-10-03T05:00:18.925Z,64.73
2018-10-03T05:02:47.658Z,64.92
2018-10-03T05:05:16.159Z,64.95
2018-10-03T05:07:44.716Z,64.65
2018-10-03T05:10:13.587Z,64.85
2018-10-03T05:12:42.233Z,64.91
2018-10-03T05:15:10.842Z,64.81
2018-10-03T05:17:39.663Z,65.08
2018-10-03T05:20:08.216Z,64.78
2018-10-03T05:22:36.795Z,64.24
2018-10-03T05:25:05.561Z,64.87
2018-10-03T05:27:34.227Z,64.43
2018-10-03T05:30:02.734Z,64.62
2018-10-03T05:32:31.241Z,64.14
2018-10-03T05:34:59.723Z,64.67
2018-10-03T05:37:28.215Z,64.74
2018-10-03T05:39:56.775Z,64.34
2018-10-03T05:42:25.286Z,64.45
2018-10-03T05:44:53.856Z,64.58
2018-10-03T05:47:22.566Z,64.49
2018-10-03T05:49:51.065Z,64.47
2018-10-03T05:52:19.644Z,64.42
2018-10-03T05:54:48.249Z,64.64
2018-10-03T05:57:16.943Z,64.61
2018-10-03T05:59:45.602Z,64.61
2018-10-03T06:05:03.373Z,64.25
2018-10-03T06:07:31.994Z,64.44
2018-10-03T06:10:00.654Z,64.52
2018-10-03T06:12:29.337Z,64.45
2018-10-03T06:14:57.947Z,64.84
2018-10-03T06:17:26.706Z,64.64
2018-10-03T06:19:55.342Z,64.43
2018-10-03T06:22:24.046Z,64.51
2018-10-03T06:24:52.579Z,64.10
2018-10-03T06:27:21.299Z,64.18
2018-10-03T06:29:49.882Z,64.22
2018-10-03T06:32:18.836Z,63.35
2018-10-03T06:34:47.711Z,63.29
2018-10-03T06:37:16.323Z,63.90
2018-10-03T06:39:45.216Z,63.58
2018-10-03T06:42:14.366Z,63.15
2018-10-03T06:44:43.330Z,62.88
2018-10-03T06:47:12.102Z,63.87
2018-10-03T06:49:40.925Z,62.85
2018-10-03T06:52:09.668Z,62.32
2018-10-03T06:54:38.220Z,62.32
2018-10-03T06:57:06.859Z,62.28
2018-10-03T06:59:35.543Z,62.34
2018-10-03T07:02:04.211Z,62.12
2018-10-03T07:04:32.859Z,61.17
2018-10-03T07:07:01.551Z,61.26
2018-10-03T07:09:30.794Z,60.42
2018-10-03T07:11:59.341Z,59.91
2018-10-03T07:14:28.049Z,60.03
2018-10-03T07:16:56.608Z,58.67
2018-10-03T07:19:25.278Z,58.50
2018-10-03T07:21:53.929Z,58.43
2018-10-03T07:24:23.696Z,57.62
2018-10-03T07:26:52.404Z,57.72
2018-10-03T07:29:21.403Z,57.31
2018-10-03T07:31:51.214Z,57.07
2018-10-03T07:34:19.734Z,56.89
2018-10-03T07:36:48.330Z,56.64
2018-10-03T07:39:16.888Z,56.38
2018-10-03T07:41:45.429Z,55.17
2018-10-03T07:44:13.936Z,55.17
2018-10-03T07:46:42.395Z,55.33
2018-10-03T07:49:10.966Z,54.72
2018-10-03T07:51:39.521Z,54.74
2018-10-03T07:54:08.026Z,54.18
2018-10-03T07:56:36.621Z,53.64
2018-10-03T07:59:05.353Z,54.43
2018-10-03T08:01:33.872Z,54.11
2018-10-03T08:04:02.848Z,53.18
2018-10-03T08:06:31.618Z,53.08
2018-10-03T08:09:00.713Z,51.99
2018-10-03T08:11:29.455Z,52.80
2018-10-03T08:13:58.122Z,51.57
2018-10-03T08:16:27.145Z,51.13
2018-10-03T08:18:55.723Z,50.83
2018-10-03T08:21:24.393Z,49.98
2018-10-03T08:23:53.065Z,49.18
2018-10-03T08:26:23.121Z,49.63
2018-10-03T08:28:51.747Z,48.77
2018-10-03T08:31:20.387Z,48.45
2018-10-03T08:33:48.914Z,48.38
2018-10-03T08:36:17.486Z,48.09
2018-10-03T08:38:47.060Z,47.64
2018-10-03T08:41:16.647Z,47.21
2018-10-03T08:43:45.158Z,46.43
2018-10-03T08:46:13.644Z,45.62
2018-10-03T08:48:43.432Z,45.77
2018-10-03T08:51:12.069Z,44.66
2018-10-03T08:53:40.617Z,44.86
2018-10-03T08:56:09.191Z,45.06
2018-10-03T08:58:37.997Z,43.88
2018-10-03T09:01:06.348Z,44.48
2018-10-03T09:03:34.878Z,43.46
2018-10-03T09:06:03.645Z,43.37
2018-10-03T09:08:32.256Z,43.79
2018-10-03T09:11:00.885Z,43.46
2018-10-03T09:13:29.893Z,43.92
2018-10-03T09:15:58.634Z,43.92
2018-10-03T09:18:27.476Z,42.77
2018-10-03T09:20:56.747Z,42.50
2018-10-03T09:23:25.823Z,42.83
2018-10-03T09:25:54.357Z,43.57
2018-10-03T09:28:22.986Z,42.68
2018-10-03T09:30:51.609Z,42.83
2018-10-03T09:33:20.300Z,42.83
2018-10-03T09:35:49.012Z,42.62
2018-10-03T09:38:24.891Z,41.54
2018-10-03T09:40:53.659Z,40.27
2018-10-03T09:43:23.434Z,40.28
2018-10-03T09:45:52.095Z,38.74
2018-10-03T09:48:20.728Z,37.60
2018-10-03T09:50:49.547Z,36.67
2018-10-03T09:53:18.231Z,34.34
2018-10-03T09:55:47.055Z,34.01
2018-10-03T09:58:15.651Z,31.66
2018-10-03T10:00:49.478Z,31.77
2018-10-03T10:03:18.020Z,32.50
2018-10-03T10:05:46.589Z,31.12
2018-10-03T10:08:15.168Z,30.73
2018-10-03T10:10:43.713Z,28.64
2018-10-03T10:13:14.607Z,28.67
2018-10-03T10:15:43.252Z,27.98
2018-10-03T10:18:12.047Z,27.58
2018-10-03T10:20:40.635Z,27.92
2018-10-03T10:23:09.234Z,28.64
2018-10-03T10:25:37.872Z,28.50
2018-10-03T10:28:06.853Z,28.58
2018-10-03T10:30:35.568Z,29.25
2018-10-03T10:33:04.111Z,29.23
2018-10-03T10:35:32.766Z,28.91
2018-10-03T10:38:01.286Z,29.73
2018-10-03T10:40:29.923Z,30.66
2018-10-03T10:42:58.336Z,31.51
2018-10-03T10:45:27.029Z,30.51
2018-10-03T10:47:55.572Z,28.87
2018-10-03T10:50:24.319Z,28.68
2018-10-03T10:52:52.812Z,27.80
2018-10-03T10:55:21.387Z,27.87
2018-10-03T10:57:50.479Z,26.12
2018-10-03T11:00:18.961Z,25.52
2018-10-03T11:02:47.524Z,25.10
2018-10-03T11:05:16.045Z,23.84
2018-10-03T11:07:44.556Z,22.04
2018-10-03T11:10:13.305Z,20.59
2018-10-03T11:12:42.699Z,19.95
2018-10-03T11:15:11.717Z,18.83
2018-10-03T11:17:40.415Z,18.78
2018-10-03T11:20:08.910Z,18.32
2018-10-03T11:22:37.546Z,19.51
2018-10-03T11:25:06.020Z,19.65
2018-10-03T11:27:34.504Z,20.20
2018-10-03T11:30:03.067Z,19.34
2018-10-03T11:32:31.543Z,19.73
2018-10-03T11:34:59.984Z,21.06
2018-10-03T11:37:28.521Z,19.82
2018-10-03T11:39:57.048Z,19.30
2018-10-03T11:42:25.581Z,19.00
2018-10-03T11:44:54.030Z,19.87
2018-10-03T11:47:22.570Z,20.62
2018-10-03T11:49:51.050Z,22.04
2018-10-03T11:52:19.626Z,22.55
2018-10-03T11:54:48.161Z,23.34
2018-10-03T11:57:16.700Z,24.29
2018-10-03T11:59:45.318Z,24.62
2018-10-03T12:02:13.926Z,25.23
2018-10-03T12:04:42.482Z,24.57
2018-10-03T12:07:10.981Z,23.89
2018-10-03T12:09:39.433Z,24.71
2018-10-03T12:12:07.925Z,25.23
2018-10-03T12:14:36.403Z,25.11
2018-10-03T12:17:04.909Z,25.28
2018-10-03T12:19:33.483Z,25.23
2018-10-03T12:22:01.951Z,25.84
2018-10-03T12:24:30.449Z,25.56
2018-10-03T12:26:58.914Z,25.63
2018-10-03T12:29:27.334Z,26.25
2018-10-03T12:31:55.827Z,25.67
2018-10-03T12:34:24.538Z,26.85
2018-10-03T12:36:52.986Z,26.68
2018-10-03T12:39:21.457Z,26.80
2018-10-03T12:41:49.996Z,26.88
2018-10-03T12:44:18.472Z,28.06
2018-10-03T12:46:46.967Z,27.44
2018-10-03T12:49:15.511Z,27.39
2018-10-03T12:51:44.030Z,28.55
2018-10-03T12:54:12.528Z,27.71
2018-10-03T12:56:41.032Z,28.48
2018-10-03T12:59:09.527Z,28.76
2018-10-03T13:01:38.143Z,29.08
2018-10-03T13:04:06.695Z,28.65
2018-10-03T13:06:35.351Z,28.55
2018-10-03T13:09:05.605Z,28.46
2018-10-03T13:11:34.146Z,27.78
2018-10-03T13:14:02.749Z,27.96
2018-10-03T13:16:31.324Z,27.60
2018-10-03T13:18:59.964Z,27.64
2018-10-03T13:21:28.836Z,27.58
2018-10-03T13:23:57.700Z,28.43
2018-10-03T13:26:26.331Z,27.86
2018-10-03T13:28:54.993Z,28.35
2018-10-03T13:31:23.599Z,27.25
2018-10-03T13:33:52.188Z,27.73
2018-10-03T13:36:20.753Z,28.37
2018-10-03T13:38:49.452Z,28.78
2018-10-03T13:41:18.210Z,28.54
2018-10-03T13:43:46.887Z,28.43
2018-10-03T13:46:15.571Z,28.22
2018-10-03T13:48:44.465Z,28.12
2018-10-03T13:51:12.951Z,28.82
2018-10-03T13:53:41.420Z,29.21
2018-10-03T13:56:09.914Z,28.53
2018-10-03T13:58:38.378Z,28.92
2018-10-03T14:01:06.827Z,30.21
2018-10-03T14:03:35.343Z,30.39
2018-10-03T14:06:03.898Z,30.42
2018-10-03T14:08:32.494Z,29.81
2018-10-03T14:11:01.167Z,30.88
2018-10-03T14:13:29.942Z,31.21
2018-10-03T14:15:58.580Z,30.79
2018-10-03T14:18:27.154Z,31.33
2018-10-03T14:20:55.728Z,31.54
2018-10-03T14:23:24.415Z,31.35
2018-10-03T14:25:53.579Z,31.43
2018-10-03T14:28:22.106Z,31.81
2018-10-03T14:30:50.608Z,31.19
2018-10-03T14:33:19.249Z,31.97
2018-10-03T14:35:48.311Z,32.55
2018-10-03T14:38:16.979Z,32.49
2018-10-03T14:40:45.520Z,32.31
2018-10-03T14:43:14.180Z,32.92
2018-10-03T14:45:43.783Z,32.51
2018-10-03T14:48:12.310Z,32.83
2018-10-03T14:50:40.831Z,32.87
2018-10-03T14:53:09.370Z,33.79
2018-10-03T14:55:37.938Z,33.99
2018-10-03T14:58:06.466Z,32.97
2018-10-03T15:00:35.042Z,33.78
2018-10-03T15:03:03.636Z,33.46
2018-10-03T15:05:32.134Z,33.77
2018-10-03T15:08:00.760Z,33.81
2018-10-03T15:10:33.056Z,34.33
2018-10-03T15:13:01.520Z,34.55
2018-10-03T15:15:30.038Z,34.27
2018-10-03T15:18:00.601Z,35.00
2018-10-03T15:20:31.942Z,34.40
2018-10-03T15:23:00.556Z,34.57
2018-10-03T15:25:31.715Z,34.77
2018-10-03T15:28:02.654Z,34.68
2018-10-03T15:30:31.425Z,34.40
2018-10-03T15:33:04.796Z,34.53
2018-10-03T15:35:33.670Z,34.90
2018-10-03T15:38:02.304Z,35.36
2018-10-03T15:40:31.060Z,34.71
2018-10-03T15:43:03.558Z,34.74
2018-10-03T15:48:20.553Z,36.57
2018-10-03T15:50:49.054Z,36.30
2018-10-03T15:53:17.999Z,36.17
2018-10-03T15:55:47.580Z,35.77
2018-10-03T15:58:16.212Z,36.01
2018-10-03T16:00:44.709Z,35.97
2018-10-03T16:03:27.231Z,36.11
2018-10-03T16:05:59.645Z,36.89
2018-10-03T16:08:28.783Z,37.12
2018-10-03T16:10:58.984Z,36.55
2018-10-03T16:13:28.584Z,36.67
2018-10-03T16:15:57.438Z,37.50
2018-10-03T16:18:26.093Z,37.77
2018-10-03T16:20:54.808Z,38.14
2018-10-03T16:23:23.396Z,38.06
2018-10-03T16:25:52.018Z,38.53
2018-10-03T16:28:20.705Z,38.30
2018-10-03T16:30:49.375Z,37.77
2018-10-03T16:33:18.810Z,38.53
2018-10-03T16:35:48.261Z,38.17
2018-10-03T16:38:17.023Z,38.39
2018-10-03T16:40:45.843Z,38.27
2018-10-03T16:43:14.373Z,38.57
2018-10-03T16:45:43.049Z,38.45
2018-10-03T16:48:11.753Z,39.30
2018-10-03T16:50:40.554Z,39.28
2018-10-03T16:53:09.898Z,39.88
2018-10-03T16:55:38.550Z,39.77
2018-10-03T16:58:09.485Z,39.83
2018-10-03T17:00:39.400Z,40.25
2018-10-03T17:03:08.995Z,40.20
2018-10-03T17:05:37.873Z,40.47
2018-10-03T17:08:06.479Z,40.62
2018-10-03T17:10:35.201Z,41.54
2018-10-03T17:13:04.655Z,41.39
2018-10-03T17:15:34.524Z,41.76
2018-10-03T17:18:03.068Z,41.58
2018-10-03T17:20:31.637Z,42.27
2018-10-03T17:23:00.597Z,42.13
2018-10-03T17:25:29.230Z,42.18
2018-10-03T17:27:57.877Z,42.73
2018-10-03T17:30:26.526Z,43.10
2018-10-03T17:32:55.076Z,43.70
2018-10-03T17:35:23.736Z,43.36
2018-10-03T17:37:52.400Z,43.60
2018-10-03T17:40:20.981Z,44.26
2018-10-03T17:42:49.501Z,44.48
2018-10-03T17:45:18.037Z,43.81
2018-10-03T17:47:46.622Z,44.14
2018-10-03T17:50:15.149Z,44.63
2018-10-03T17:52:44.945Z,45.28
2018-10-03T17:55:13.610Z,44.69
2018-10-03T17:57:42.048Z,44.98
2018-10-03T18:00:10.766Z,45.64
2018-10-03T18:02:39.261Z,45.67
2018-10-03T18:05:07.791Z,46.03
2018-10-03T18:07:36.310Z,46.16
2018-10-03T18:10:05.134Z,46.31
2018-10-03T18:12:33.855Z,45.88
2018-10-03T18:15:03.321Z,46.04
2018-10-03T18:17:32.140Z,46.21
2018-10-03T18:20:00.740Z,46.90
2018-10-03T18:22:29.366Z,46.80
2018-10-03T18:24:58.057Z,47.42
2018-10-03T18:27:26.746Z,47.40
2018-10-03T18:29:55.389Z,47.53
2018-10-03T18:32:24.009Z,47.17
2018-10-03T18:34:52.686Z,47.46
2018-10-03T18:37:21.325Z,47.78
2018-10-03T18:39:50.055Z,48.23
2018-10-03T18:42:18.790Z,48.58
2018-10-03T18:44:47.423Z,48.40
2018-10-03T18:47:16.067Z,48.47
2018-10-03T18:49:44.672Z,48.75
2018-10-03T18:52:13.379Z,48.77
2018-10-03T18:54:42.110Z,49.64
2018-10-03T18:57:10.740Z,49.50
2018-10-03T18:59:39.346Z,49.60
2018-10-03T19:02:08.022Z,49.65
2018-10-03T19:04:36.607Z,50.04
2018-10-03T19:07:05.236Z,50.01
2018-10-03T19:09:33.909Z,50.68
2018-10-03T19:12:02.642Z,50.78
2018-10-03T19:14:31.257Z,50.57
2018-10-03T19:16:59.903Z,50.88
2018-10-03T19:19:28.452Z,51.25
2018-10-03T19:21:57.072Z,50.83
2018-10-03T19:24:25.619Z,50.74
2018-10-03T19:26:54.248Z,51.44
2018-10-03T19:29:22.862Z,51.88
2018-10-03T19:31:51.473Z,51.90
2018-10-03T19:34:20.030Z,52.16
2018-10-03T19:36:48.613Z,52.35
2018-10-03T19:39:17.191Z,52.10
2018-10-03T19:41:45.780Z,53.03
2018-10-03T19:44:14.322Z,52.47
2018-10-03T19:46:42.969Z,52.72
2018-10-03T19:49:11.609Z,52.70
2018-10-03T19:51:40.331Z,53.10
2018-10-03T19:54:09.176Z,53.15
2018-10-03T19:56:37.834Z,52.94
2018-10-03T19:59:06.518Z,52.95
2018-10-03T20:01:35.164Z,53.33
2018-10-03T20:04:03.812Z,53.38
2018-10-03T20:06:32.562Z,53.60
2018-10-03T20:09:01.244Z,53.51
2018-10-03T20:11:29.814Z,53.13
2018-10-03T20:13:58.531Z,53.34
2018-10-03T20:16:27.181Z,53.46
2018-10-03T20:18:55.967Z,54.06
2018-10-03T20:21:24.665Z,53.73
2018-10-03T20:23:53.263Z,54.13
2018-10-03T20:26:22.023Z,54.27
2018-10-03T20:28:50.776Z,53.82
2018-10-03T20:31:19.408Z,54.14
2018-10-03T20:33:48.017Z,53.90
2018-10-03T20:36:16.657Z,54.51
2018-10-03T20:38:45.797Z,54.95
2018-10-03T20:41:15.002Z,54.38
2018-10-03T20:43:44.035Z,54.77
2018-10-03T20:46:13.301Z,54.91
2018-10-03T20:48:42.489Z,54.53
2018-10-03T20:51:11.617Z,54.82
2018-10-03T20:53:40.580Z,55.37
2018-10-03T20:56:10.193Z,55.00
2018-10-03T20:58:39.232Z,54.96
2018-10-03T21:01:09.247Z,55.40
2018-10-03T21:03:38.219Z,55.53
2018-10-03T21:06:07.404Z,55.61
2018-10-03T21:08:36.465Z,55.63
2018-10-03T21:11:05.397Z,55.41
2018-10-03T21:13:34.136Z,55.86
2018-10-03T21:16:03.165Z,55.83
2018-10-03T21:18:33.187Z,55.95
2018-10-03T21:21:01.820Z,56.18
2018-10-03T21:23:30.419Z,56.23
2018-10-03T21:25:59.099Z,56.06
2018-10-03T21:28:27.788Z,56.16
2018-10-03T21:30:56.405Z,56.62
2018-10-03T21:33:24.994Z,56.71
2018-10-03T21:35:53.689Z,56.71
2018-10-03T21:41:02.191Z,58.78
2018-10-03T21:43:30.821Z,57.95
2018-10-03T21:45:59.335Z,57.70
2018-10-03T21:48:27.802Z,57.19
2018-10-03T21:50:56.353Z,57.14
2018-10-03T21:53:24.797Z,57.03
2018-10-03T21:55:53.340Z,57.27
2018-10-03T21:58:21.786Z,57.00
2018-10-03T22:00:54.258Z,57.12
2018-10-03T22:03:23.043Z,57.11
2018-10-03T22:05:51.498Z,56.99
2018-10-03T22:08:19.997Z,57.44
2018-10-03T22:10:48.721Z,57.13
2018-10-03T22:13:17.225Z,57.35
2018-10-03T22:15:46.243Z,57.07
2018-10-03T22:18:14.701Z,57.51
2018-10-03T22:20:43.167Z,57.57
2018-10-03T22:23:11.752Z,57.83
2018-10-03T22:25:40.125Z,57.34
2018-10-03T22:28:08.591Z,57.94
2018-10-03T22:30:37.111Z,57.76
2018-10-03T22:33:05.562Z,57.76
2018-10-03T22:35:34.002Z,57.69
2018-10-03T22:38:02.480Z,58.09
2018-10-03T22:40:30.973Z,58.31
2018-10-03T22:42:59.458Z,57.89
2018-10-03T22:45:27.942Z,58.31
2018-10-03T22:47:56.427Z,58.25
2018-10-03T22:50:24.918Z,58.48
2018-10-03T22:52:53.369Z,58.50
2018-10-03T22:55:21.842Z,58.66
2018-10-03T22:57:50.244Z,58.82
2018-10-03T23:00:18.703Z,58.19
2018-10-03T23:02:47.116Z,58.83
2018-10-03T23:05:15.590Z,58.50
2018-10-03T23:07:44.025Z,58.23
2018-10-03T23:10:12.558Z,58.44
2018-10-03T23:12:40.998Z,58.57
2018-10-03T23:15:09.511Z,58.56
2018-10-03T23:17:37.978Z,58.62
2018-10-03T23:20:06.431Z,58.92
2018-10-03T23:22:34.877Z,58.65
2018-10-03T23:25:03.348Z,58.99
2018-10-03T23:27:31.845Z,58.53
2018-10-03T23:30:00.293Z,58.99
2018-10-03T23:32:28.716Z,58.91
2018-10-03T23:34:57.142Z,58.98
2018-10-03T23:37:25.602Z,59.32
2018-10-03T23:39:54.052Z,58.86
2018-10-03T23:42:22.511Z,58.97
2018-10-03T23:44:50.951Z,58.96
2018-10-03T23:47:19.429Z,58.92
2018-10-03T23:49:47.895Z,59.15
2018-10-03T23:52:16.343Z,58.86
2018-10-03T23:54:44.824Z,59.04
2018-10-03T23:57:13.318Z,59.01
2018-10-03T23:59:41.792Z,58.94
